Time;durP1;ratioP1;P1;durP2;ratioP2;P2;SDS_P1;SDS_P2;PMS_P1;PMS_P2;Temp;Humidity;BMP_temperature;BMP_pressure;BME280_temperature;BME280_humidity;BME280_pressure;Samples;Min_cycle;Max_cycle;Signal;HPM_P1;HPM_P2
2021/06/10 07:32:10;;;;;;;;;;;17.60;99.90;;;;;;6157602;22;20381;-82
2021/06/10 07:34:38;;;;;;;;;;;17.70;99.90;;;;;;6211126;23;19931;-82
2021/06/10 07:37:06;;;;;;;;;;;17.80;99.90;;;;;;6183146;22;22681;-81
2021/06/10 07:39:33;;;;;;;;;;;17.90;99.90;;;;;;6211202;23;19965;-81
2021/06/10 07:42:01;;;;;;;;;;;17.90;99.90;;;;;;6184813;22;20333;-81
2021/06/10 07:44:28;;;;;;;;;;;18.00;99.90;;;;;;6210343;23;19920;-81
2021/06/10 07:46:55;;;;;;;;;;;18.00;99.90;;;;;;6211172;23;20300;-81
2021/06/10 07:49:22;;;;;;;;;;;18.10;99.90;;;;;;6210652;23;19919;-81
2021/06/10 07:51:49;;;;;;;;;;;18.10;99.90;;;;;;6210793;23;19920;-85
2021/06/10 07:54:15;;;;;;;;;;;18.20;99.90;;;;;;6209621;23;19950;-81
2021/06/10 07:56:42;;;;;;;;;;;18.20;99.90;;;;;;6184370;22;20346;-81
2021/06/10 07:59:10;;;;;;;;;;;18.20;99.90;;;;;;6210231;23;19920;-82
2021/06/10 08:01:38;;;;;;;;;;;18.30;99.90;;;;;;6184576;22;20339;-82
2021/06/10 08:04:05;;;;;;;;;;;18.40;99.90;;;;;;6184072;22;19926;-81
2021/06/10 08:06:31;;;;;;;;;;;18.60;99.90;;;;;;6184583;23;19920;-81
2021/06/10 08:08:58;;;;;;;;;;;18.70;99.90;;;;;;6210936;23;19920;-81
2021/06/10 08:11:25;;;;;;;;;;;18.90;99.90;;;;;;6184335;22;19920;-81
2021/06/10 08:13:52;;;;;;;;;;;19.10;99.90;;;;;;6184212;22;19920;-81
2021/06/10 08:16:20;;;;;;;;;;;19.20;99.90;;;;;;6210620;22;19990;-82
2021/06/10 08:18:47;;;;;;;;;;;19.30;99.90;;;;;;6185067;22;19934;-81
2021/06/10 08:21:13;;;;;;;;;;;19.30;99.90;;;;;;6184151;22;20296;-82
2021/06/10 08:23:41;;;;;;;;;;;19.30;99.90;;;;;;6210735;23;19995;-81
2021/06/10 08:26:08;;;;;;;;;;;19.30;99.90;;;;;;6184107;22;19920;-82
2021/06/10 08:28:35;;;;;;;;;;;19.30;99.90;;;;;;6184531;22;19965;-81
2021/06/10 08:31:02;;;;;;;;;;;19.40;99.90;;;;;;6180844;22;19924;-82
2021/06/10 08:33:30;;;;;;;;;;;19.50;99.90;;;;;;6154125;22;19920;-81
2021/06/10 08:35:56;;;;;;;;;;;19.50;99.90;;;;;;6154270;22;20351;-81
2021/06/10 08:38:23;;;;;;;;;;;19.50;99.90;;;;;;6179905;22;20531;-81
2021/06/10 08:40:50;;;;;;;;;;;19.50;99.90;;;;;;6179556;22;19920;-83
2021/06/10 08:43:17;;;;;;;;;;;19.40;99.90;;;;;;6179652;22;20347;-81
2021/06/10 08:45:46;;;;;;;;;;;19.40;99.90;;;;;;6154784;22;19921;-81
2021/06/10 08:48:13;;;;;;;;;;;19.30;99.90;;;;;;6180348;22;19975;-81
2021/06/10 08:50:42;;;;;;;;;;;19.30;99.90;;;;;;6154661;22;19988;-81
2021/06/10 08:53:11;;;;;;;;;;;19.30;99.90;;;;;;6180417;22;20339;-82
2021/06/10 08:55:38;;;;;;;;;;;19.30;99.90;;;;;;6154782;22;19920;-82
2021/06/10 08:58:04;;;;;;;;;;;19.20;99.90;;;;;;6154056;22;19921;-83
2021/06/10 09:00:32;;;;;;;;;;;19.30;99.90;;;;;;6155022;22;19965;-81
2021/06/10 09:03:00;;;;;;;;;;;19.40;99.90;;;;;;6180789;22;19920;-81
2021/06/10 09:05:28;;;;;;;;;;;19.50;99.90;;;;;;6180357;22;19920;-81
2021/06/10 09:07:56;;;;;;;;;;;19.50;99.90;;;;;;6179817;22;19924;-81
2021/06/10 09:10:27;;;;;;;;;;;19.50;99.90;;;;;;6180268;22;19930;-82
2021/06/10 09:12:56;;;;;;;;;;;19.30;99.90;;;;;;6154353;22;20396;-82
2021/06/10 09:15:27;;;;;;;;;;;19.40;99.90;;;;;;6180325;22;19928;-81
2021/06/10 09:18:00;;;;;;;;;;;19.30;99.90;;;;;;6180666;22;19924;-81
2021/06/10 09:20:27;;;;;;;;;;;19.30;99.90;;;;;;6153554;22;19950;-82
2021/06/10 09:23:15;;;;;;;;;;;19.20;99.90;;;;;;6154389;22;20335;-82
2021/06/10 09:25:43;;;;;;;;;;;19.20;99.90;;;;;;6154332;22;20296;-81
2021/06/10 09:28:09;;;;;;;;;;;19.10;99.90;;;;;;6180295;22;19925;-82
2021/06/10 09:30:36;;;;;;;;;;;19.20;99.90;;;;;;6152048;22;19966;-82
2021/06/10 09:33:08;;;;;;;;;;;19.30;99.90;;;;;;6154477;22;19920;-82
2021/06/10 09:35:36;;;;;;;;;;;19.60;99.90;;;;;;6153923;22;19991;-83
2021/06/10 09:38:05;;;;;;;;;;;19.80;99.90;;;;;;6154746;22;19920;-81
2021/06/10 09:40:32;;;;;;;;;;;20.00;99.90;;;;;;6153615;22;19920;-81
2021/06/10 09:42:59;;;;;;;;;;;20.00;99.90;;;;;;6180505;22;19920;-83
2021/06/10 09:45:28;;;;;;;;;;;20.00;99.90;;;;;;6153471;22;19921;-82
2021/06/10 09:48:04;;;;;;;;;;;19.80;99.90;;;;;;6154632;22;19944;-82
2021/06/10 09:50:36;;;;;;;;;;;19.80;99.90;;;;;;6154324;22;19966;-82
2021/06/10 09:53:08;;;;;;;;;;;19.90;99.90;;;;;;6154913;22;20395;-82
2021/06/10 09:55:35;;;;;;;;;;;20.00;99.90;;;;;;6163077;22;19920;-81
2021/06/10 09:58:40;;;;;;;;;;;20.00;99.90;;;;;;5112377;27;20392;-83
2021/06/10 10:01:16;;;;;;;;;;;20.00;99.90;;;;;;5052367;28;20265;-83
2021/06/10 10:03:44;;;;;;;;;;;20.10;99.90;;;;;;5071909;28;20307;-83
2021/06/10 10:06:17;;;;;;;;;;;20.20;99.90;;;;;;5063396;28;19947;-82
2021/06/10 10:08:46;;;;;;;;;;;20.30;99.90;;;;;;5042508;28;19929;-83
2021/06/10 10:11:47;;;;;;;2.45;1.40;;;20.40;99.90;;;;;;5142215;27;20469;-82
2021/06/10 10:14:14;;;;;;;2.60;1.70;;;20.60;99.90;;;;;;5101030;27;20119;-83
2021/06/10 10:16:42;;;;;;;2.38;1.75;;;20.70;99.90;;;;;;5092068;28;20048;-83
2021/06/10 10:19:11;;;;;;;1.55;1.40;;;20.70;99.90;;;;;;5114286;27;20068;-83
2021/06/10 10:21:39;;;;;;;1.50;1.40;;;20.80;99.90;;;;;;5091317;28;20049;-83
2021/06/10 10:24:08;;;;;;;1.45;1.20;;;20.90;99.90;;;;;;5089241;28;20048;-82
2021/06/10 10:26:37;;;;;;;1.40;1.10;;;21.00;99.90;;;;;;5084241;27;20040;-84
2021/06/10 10:29:06;;;;;;;1.42;1.02;;;20.90;99.90;;;;;;5069006;28;20048;-83
2021/06/10 10:31:34;;;;;;;1.25;1.00;;;20.90;99.90;;;;;;5077368;28;20383;-84
2021/06/10 10:34:01;;;;;;;1.40;1.20;;;20.90;99.90;;;;;;5075098;28;20136;-83
2021/06/10 10:36:41;;;;;;;2.22;1.70;;;20.80;99.90;;;;;;5080105;28;20119;-85
2021/06/10 10:39:10;;;;;;;1.55;1.45;;;20.80;99.90;;;;;;5085366;28;20056;-84
2021/06/10 10:41:56;;;;;;;1.65;1.42;;;20.70;99.90;;;;;;5082351;27;20052;-84
2021/06/10 10:44:26;;;;;;;1.92;1.52;;;20.60;99.90;;;;;;5068809;28;20052;-83
2021/06/10 10:46:59;;;;;;;2.53;1.30;;;20.50;99.90;;;;;;5072236;28;20044;-85
2021/06/10 10:49:39;;;;;;;1.55;1.45;;;20.40;99.90;;;;;;5112430;28;20060;-83
2021/06/10 10:52:37;;;;;;;1.30;1.20;;;20.40;99.90;;;;;;5087800;28;20068;-83
2021/06/10 10:55:15;;;;;;;;;;;20.30;99.90;;;;;;5103812;27;20121;-84
2021/06/10 10:57:44;;;;;;;1.60;1.50;;;20.30;99.90;;;;;;5092135;28;19920;-83
2021/06/10 11:00:18;;;;;;;1.85;1.73;;;20.30;99.90;;;;;;5090091;28;20098;-84
2021/06/10 11:03:19;;;;;;;1.58;1.40;;;20.20;99.90;;;;;;5091091;28;20048;-83
2021/06/10 11:05:46;;;;;;;1.40;1.30;;;20.30;99.90;;;;;;5095143;27;20052;-83
2021/06/10 11:08:13;;;;;;;1.40;0.90;;;20.20;99.90;;;;;;5096512;27;20048;-83
2021/06/10 11:10:49;;;;;;;0.80;0.80;;;20.20;99.90;;;;;;5094125;28;20053;-84
2021/06/10 11:13:24;;;;;;;1.88;0.95;;;20.00;99.90;;;;;;5097409;27;20059;-84
2021/06/10 11:15:52;;;;;;;0.95;0.88;;;20.00;99.90;;;;;;5077686;27;20453;-85
2021/06/10 11:18:42;;;;;;;1.15;0.80;;;19.80;99.90;;;;;;5067651;28;20074;-84
2021/06/10 11:21:11;;;;;;;1.20;1.00;;;19.70;99.90;;;;;;5068014;28;20052;-84
2021/06/10 11:23:38;;;;;;;;;;;19.70;99.90;;;;;;5060332;28;20057;-84
2021/06/10 11:26:18;;;;;;;1.60;0.90;;;19.80;99.90;;;;;;5064178;28;20383;-83
2021/06/10 11:29:00;;;;;;;1.77;0.93;;;19.80;99.90;;;;;;5064902;28;20068;-84
2021/06/10 11:31:28;;;;;;;1.10;1.00;;;19.90;99.90;;;;;;5037864;28;20053;-83
2021/06/10 11:33:55;;;;;;;2.17;0.90;;;20.00;99.90;;;;;;5055156;28;20060;-84
2021/06/10 11:36:22;;;;;;;1.20;1.00;;;20.10;99.90;;;;;;5054677;28;20577;-84
2021/06/10 11:38:52;;;;;;;1.08;0.98;;;20.20;99.90;;;;;;5053873;28;20079;-83
2021/06/10 11:41:23;;;;;;;0.95;0.95;;;20.30;99.90;;;;;;5054934;28;20052;-83
2021/06/10 11:43:57;;;;;;;1.38;1.00;;;20.40;99.90;;;;;;5054992;28;20041;-83
2021/06/10 11:46:34;;;;;;;2.05;0.93;;;20.40;99.90;;;;;;5058041;28;20051;-84
2021/06/10 11:49:01;;;;;;;0.95;0.90;;;20.40;99.90;;;;;;5087126;28;20659;-84
2021/06/10 11:51:35;;;;;;;1.42;1.10;;;20.50;99.90;;;;;;5075586;28;20528;-83
2021/06/10 11:54:11;;;;;;;1.40;1.00;;;20.60;99.90;;;;;;5079464;28;20044;-83
2021/06/10 11:56:42;;;;;;;1.23;1.13;;;20.70;99.90;;;;;;5096417;28;20541;-84
2021/06/10 11:59:28;;;;;;;1.77;1.20;;;20.90;99.90;;;;;;5065970;28;20097;-83
2021/06/10 12:02:04;;;;;;;1.75;1.50;;;20.90;99.90;;;;;;5074515;28;20044;-84
2021/06/10 12:04:33;;;;;;;1.75;1.30;;;20.80;99.90;;;;;;5072721;28;20040;-85
2021/06/10 12:07:20;;;;;;;1.33;1.20;;;20.70;99.90;;;;;;5085942;28;20174;-84
2021/06/10 12:09:58;;;;;;;1.50;1.40;;;20.70;99.90;;;;;;5100170;28;20048;-85
2021/06/10 12:12:32;;;;;;;1.98;1.10;;;20.70;99.90;;;;;;5084964;28;20048;-84
2021/06/10 12:14:59;;;;;;;2.65;1.30;;;20.50;99.90;;;;;;5073823;28;20086;-84
2021/06/10 12:17:25;;;;;;;1.30;1.25;;;20.50;99.90;;;;;;5072329;28;20049;-85
2021/06/10 12:20:18;;;;;;;1.30;1.20;;;20.40;99.90;;;;;;5075683;28;20040;-84
2021/06/10 12:22:58;;;;;;;1.70;1.60;;;20.40;99.90;;;;;;5064596;28;20036;-84
2021/06/10 12:25:31;;;;;;;1.70;1.20;;;20.50;99.90;;;;;;5084764;28;20495;-84
2021/06/10 12:28:00;;;;;;;2.13;1.08;;;20.40;99.90;;;;;;5066070;28;20088;-84
2021/06/10 12:30:32;;;;;;;1.35;1.25;;;20.50;99.90;;;;;;5053462;28;20538;-83
2021/06/10 12:33:20;;;;;;;2.13;1.20;;;20.50;99.90;;;;;;5053898;28;20045;-84
2021/06/10 12:35:49;;;;;;;1.20;1.10;;;20.40;99.90;;;;;;5065619;28;20040;-84
2021/06/10 12:38:18;;;;;;;1.75;1.13;;;20.30;99.90;;;;;;5072224;28;20072;-85
2021/06/10 12:40:47;;;;;;;1.90;1.50;;;20.20;99.90;;;;;;5053124;28;20568;-83
2021/06/10 12:43:23;;;;;;;1.30;1.20;;;20.10;99.90;;;;;;5049721;28;20061;-84
2021/06/10 12:46:02;;;;;;;1.33;1.23;;;20.10;99.90;;;;;;5067938;28;20049;-84
2021/06/10 12:48:53;;;;;;;1.58;1.45;;;20.20;99.90;;;;;;5087106;28;20056;-90
2021/06/10 12:51:21;;;;;;;1.65;1.30;;;20.10;99.90;;;;;;5068891;28;20149;-83
2021/06/10 12:54:07;;;;;;;2.40;1.65;;;20.20;99.90;;;;;;5085204;28;20044;-84
2021/06/10 12:57:04;;;;;;;2.50;1.58;;;20.30;99.90;;;;;;5086330;28;20556;-84
2021/06/10 12:59:35;;;;;;;2.03;1.60;;;20.30;99.90;;;;;;5063085;28;20044;-84
2021/06/10 13:02:13;;;;;;;3.20;1.42;;;20.40;99.90;;;;;;5077346;28;20122;-84
2021/06/10 13:04:48;;;;;;;1.50;1.40;;;20.50;99.90;;;;;;5072792;28;20086;-85
2021/06/10 13:07:33;;;;;;;2.20;1.70;;;20.70;99.90;;;;;;5058473;28;20049;-83
2021/06/10 13:10:34;;;;;;;2.38;1.92;;;20.80;99.90;;;;;;5064972;28;20049;-84
2021/06/10 13:13:02;;;;;;;1.70;1.50;;;20.90;99.90;;;;;;5026398;28;20321;-84
2021/06/10 13:15:32;;;;;;;2.38;1.95;;;20.90;99.90;;;;;;5008683;28;20049;-83
2021/06/10 13:18:07;;;;;;;2.40;1.75;;;21.10;99.90;;;;;;5004515;28;20049;-88
2021/06/10 13:20:57;;;;;;;1.83;1.50;;;21.20;99.90;;;;;;5032631;28;20114;-84
2021/06/10 13:23:27;;;;;;;1.85;1.65;;;21.30;99.90;;;;;;5021749;28;20438;-84
2021/06/10 13:26:14;;;;;;;3.00;1.73;;;21.40;99.90;;;;;;5017602;28;20050;-83
2021/06/10 13:28:42;;;;;;;1.73;1.50;;;21.60;99.90;;;;;;5028512;28;20089;-84
2021/06/10 13:31:10;;;;;;;;;;;21.70;99.90;;;;;;5045424;28;20049;-83
2021/06/10 13:33:37;;;;;;;1.80;1.55;;;21.70;99.90;;;;;;5032587;28;19925;-83
2021/06/10 13:36:06;;;;;;;2.65;1.88;;;21.80;99.90;;;;;;5034558;28;20523;-82
2021/06/10 13:38:32;;;;;;;;;;;21.90;99.90;;;;;;5035207;28;20050;-84
2021/06/10 13:40:59;;;;;;;1.88;1.38;;;22.00;99.90;;;;;;5033707;28;19958;-84
2021/06/10 13:43:36;;;;;;;5.15;1.80;;;22.00;99.90;;;;;;5030546;28;20076;-84
2021/06/10 13:46:04;;;;;;;1.52;1.33;;;22.10;99.90;;;;;;5015974;28;20050;-84
2021/06/10 13:48:31;;;;;;;2.03;1.60;;;22.30;99.90;;;;;;5044716;28;20044;-84
2021/06/10 13:50:59;;;;;;;3.42;1.60;;;22.40;99.90;;;;;;5065444;28;20503;-85
2021/06/10 13:53:27;;;;;;;2.17;1.53;;;22.50;99.90;;;;;;5073820;28;20045;-84
2021/06/10 13:55:55;;;;;;;1.88;1.40;;;22.50;99.90;;;;;;5074147;28;20106;-84
2021/06/10 13:58:22;;;;;;;2.38;1.65;;;22.60;99.90;;;;;;5056571;28;20111;-84
2021/06/10 14:00:50;;;;;;;1.45;1.35;;;22.60;99.90;;;;;;5074652;28;20048;-84
2021/06/10 14:03:18;;;;;;;1.92;1.48;;;22.60;99.90;;;;;;5071279;28;20044;-84
2021/06/10 14:05:46;;;;;;;;;;;22.50;99.90;;;;;;5074689;28;20049;-85
2021/06/10 14:08:13;;;;;;;2.00;1.60;;;22.50;99.90;;;;;;5072476;28;19924;-84
2021/06/10 14:10:40;;;;;;;1.52;1.40;;;22.40;99.90;;;;;;5069654;28;20107;-85
2021/06/10 14:13:07;;;;;;;1.80;1.50;;;22.30;99.90;;;;;;5060829;28;20083;-86
2021/06/10 14:15:34;;;;;;;5.20;1.60;;;22.30;99.90;;;;;;5062831;28;20490;-84
2021/06/10 14:18:01;;;;;;;2.42;1.77;;;22.30;99.90;;;;;;5059956;28;20500;-84
2021/06/10 14:20:29;;;;;;;3.17;1.50;;;22.40;99.90;;;;;;5073347;28;20525;-84
2021/06/10 14:22:56;;;;;;;1.95;1.30;;;22.40;99.90;;;;;;5073881;28;20040;-84
2021/06/10 14:25:23;;;;;;;2.22;1.50;;;22.30;99.90;;;;;;5067024;28;20491;-84
2021/06/10 14:27:55;;;;;;;2.50;1.50;;;22.40;99.90;;;;;;5073358;28;20052;-86
2021/06/10 14:32:52;;;;;;;2.40;1.67;;;22.60;99.90;;;;;;5072472;28;20057;-84
2021/06/10 14:35:20;;;;;;;3.30;1.45;;;22.60;99.90;;;;;;5073273;28;20045;-84
2021/06/10 14:37:47;;;;;;;3.28;1.50;;;22.60;99.90;;;;;;5071047;28;20040;-84
2021/06/10 14:40:14;;;;;;;3.55;1.35;;;22.70;99.90;;;;;;5058712;28;20507;-85
2021/06/10 14:42:43;;;;;;;2.67;1.63;;;22.80;99.90;;;;;;5082807;28;20044;-84
2021/06/10 14:45:12;;;;;;;3.40;1.52;;;22.80;99.90;;;;;;5055194;28;20508;-86
2021/06/10 14:47:42;;;;;;;1.92;1.60;;;22.90;99.90;;;;;;5056460;28;20044;-84
2021/06/10 14:50:09;;;;;;;2.67;1.50;;;22.80;99.90;;;;;;5062158;28;20044;-83
2021/06/10 14:52:37;;;;;;;2.45;1.35;;;22.90;99.90;;;;;;5075158;28;20083;-81
2021/06/10 14:55:05;;;;;;;1.52;1.40;;;23.00;99.90;;;;;;5068366;28;20045;-83
2021/06/10 14:57:32;;;;;;;;;;;23.10;99.90;;;;;;5061159;28;20041;-83
2021/06/10 14:59:59;;;;;;;4.10;1.58;;;23.20;99.90;;;;;;5092651;28;19924;-82
2021/06/10 15:02:26;;;;;;;3.22;1.35;;;23.20;99.90;;;;;;5076641;28;20045;-83
2021/06/10 15:04:53;;;;;;;1.67;1.50;;;23.10;99.90;;;;;;5074977;28;20044;-82
2021/06/10 15:07:20;;;;;;;1.75;1.42;;;23.00;99.90;;;;;;5054691;28;20068;-82
2021/06/10 15:09:49;;;;;;;2.22;1.42;;;23.00;99.90;;;;;;5079348;28;20052;-83
2021/06/10 15:12:16;;;;;;;2.45;1.23;;;23.10;99.90;;;;;;5076790;28;20045;-83
2021/06/10 15:14:42;;;;;;;2.03;1.35;;;23.10;99.90;;;;;;5077638;28;20083;-84
2021/06/10 15:17:09;;;;;;;2.22;1.40;;;23.10;99.90;;;;;;5076794;28;20040;-81
2021/06/10 15:19:37;;;;;;;3.05;1.40;;;23.00;99.90;;;;;;5073376;28;20065;-82
2021/06/10 15:22:04;;;;;;;3.20;1.40;;;23.00;99.90;;;;;;5074923;28;20048;-82
2021/06/10 15:24:31;;;;;;;1.83;1.38;;;22.90;99.90;;;;;;5077461;28;20419;-87
2021/06/10 15:26:58;;;;;;;4.28;1.83;;;23.00;99.90;;;;;;5072267;28;20040;-85
2021/06/10 15:29:25;;;;;;;3.65;1.70;;;23.00;99.90;;;;;;5074860;28;20575;-82
2021/06/10 15:31:52;;;;;;;1.88;1.50;;;23.10;99.90;;;;;;5075114;28;20099;-83
2021/06/10 15:34:19;;;;;;;2.42;1.90;;;23.20;99.90;;;;;;5070355;28;20052;-87
2021/06/10 15:36:46;;;;;;;1.88;1.50;;;23.10;99.90;;;;;;5077191;28;20048;-84
2021/06/10 15:39:12;;;;;;;2.42;1.80;;;23.00;99.90;;;;;;5073746;28;20411;-85
2021/06/10 15:41:39;;;;;;;2.78;1.70;;;22.90;99.90;;;;;;5075811;28;20052;-86
2021/06/10 15:44:06;;;;;;;4.88;1.50;;;22.70;99.90;;;;;;5075849;28;20108;-84
2021/06/10 15:46:34;;;;;;;5.82;2.30;;;22.70;99.90;;;;;;5073449;28;20449;-86
2021/06/10 15:49:01;;;;;;;4.07;2.08;;;22.70;99.90;;;;;;5087807;28;20048;-84
2021/06/10 15:51:32;;;;;;;3.90;2.30;;;22.70;99.90;;;;;;5074168;28;20105;-83
2021/06/10 15:54:00;;;;;;;3.05;2.08;;;22.60;99.90;;;;;;5074236;28;20098;-84
2021/06/10 15:56:27;;;;;;;3.67;2.20;;;22.60;99.90;;;;;;5075690;28;20051;-84
2021/06/10 15:58:54;;;;;;;2.60;2.22;;;22.60;99.90;;;;;;5071059;28;20495;-86
2021/06/10 16:01:21;;;;;;;2.90;1.95;;;22.40;99.90;;;;;;5070962;28;20068;-84
2021/06/10 16:03:47;;;;;;;2.45;1.98;;;22.20;99.90;;;;;;5070992;28;20045;-82
2021/06/10 16:06:14;;;;;;;4.13;2.08;;;22.10;99.90;;;;;;5073530;28;20575;-84
2021/06/10 16:08:41;;;;;;;2.47;2.13;;;21.90;99.90;;;;;;5073655;28;20044;-81
2021/06/10 16:11:10;;;;;;;2.77;2.27;;;21.80;99.90;;;;;;5072174;28;20530;-82
2021/06/10 16:13:38;;;;;;;4.97;2.30;;;21.80;99.90;;;;;;5072473;28;20336;-82
2021/06/10 16:16:07;;;;;;;3.03;1.90;;;21.90;99.90;;;;;;5070661;28;20040;-84
2021/06/10 16:18:34;;;;;;;3.08;2.10;;;21.80;99.90;;;;;;5069864;28;20045;-83
2021/06/10 16:21:03;;;;;;;2.08;1.73;;;21.70;99.90;;;;;;5070622;28;20102;-84
2021/06/10 16:23:30;;;;;;;3.40;2.22;;;21.60;99.90;;;;;;5075328;28;20109;-83
2021/06/10 16:25:57;;;;;;;2.80;1.95;;;21.50;99.90;;;;;;5072023;28;20087;-82
2021/06/10 16:28:23;;;;;;;3.38;1.60;;;21.50;99.90;;;;;;5067917;28;20462;-83
2021/06/10 16:30:51;;;;;;;2.75;1.60;;;21.50;99.90;;;;;;5077931;28;20048;-84
2021/06/10 16:33:17;;;;;;;3.90;1.67;;;21.60;99.90;;;;;;5068165;28;20601;-79
2021/06/10 16:35:44;;;;;;;2.75;1.70;;;21.60;99.90;;;;;;5069365;28;20087;-82
2021/06/10 16:38:11;;;;;;;3.15;1.50;;;21.50;99.90;;;;;;5071067;28;20495;-84
2021/06/10 16:40:38;;;;;;;3.38;1.50;;;21.60;99.90;;;;;;5073101;28;20049;-80
2021/06/10 16:43:05;;;;;;;3.35;1.58;;;21.50;99.90;;;;;;5071891;28;20076;-81
2021/06/10 16:45:32;;;;;;;4.35;1.58;;;21.70;99.90;;;;;;5070800;28;20082;-83
2021/06/10 16:47:58;;;;;;;2.85;1.67;;;21.70;99.90;;;;;;5075614;28;20052;-80
2021/06/10 16:50:25;;;;;;;5.25;2.05;;;21.70;99.90;;;;;;5072942;28;20094;-80
2021/06/10 16:52:52;;;;;;;3.50;2.05;;;21.70;99.90;;;;;;5072588;28;20094;-82
2021/06/10 16:55:20;;;;;;;3.30;1.60;;;21.70;99.90;;;;;;5071795;28;20523;-83
2021/06/10 16:57:47;;;;;;;2.42;1.90;;;21.60;99.90;;;;;;5070068;28;20079;-80
2021/06/10 17:00:23;;;;;;;7.13;1.67;;;21.60;99.90;;;;;;5070235;28;20076;-80
2021/06/10 17:05:26;;;;;;;1.60;1.50;;;21.80;99.90;;;;;;5072440;28;20060;-80
2021/06/10 17:07:54;;;;;;;2.10;1.60;;;21.80;99.90;;;;;;5070803;28;20052;-80
2021/06/10 17:10:22;;;;;;;3.00;1.60;;;21.80;99.90;;;;;;5069261;28;20126;-80
2021/06/10 17:12:49;;;;;;;1.60;1.50;;;21.70;99.90;;;;;;5067323;28;20076;-80
2021/06/10 17:15:17;;;;;;;2.38;1.35;;;21.70;99.90;;;;;;5079193;28;20479;-79
2021/06/10 17:17:45;;;;;;;2.35;1.60;;;21.80;99.90;;;;;;5079678;28;20055;-80
2021/06/10 17:20:14;;;;;;;2.70;1.45;;;21.70;99.90;;;;;;5082663;28;20114;-80
2021/06/10 17:22:42;;;;;;;2.35;1.33;;;21.70;99.90;;;;;;5061733;28;20057;-79
2021/06/10 17:25:11;;;;;;;1.95;1.40;;;21.80;99.90;;;;;;5068474;28;20037;-79
2021/06/10 17:27:39;;;;;;;1.40;1.30;;;21.80;99.90;;;;;;5070524;28;20057;-81
2021/06/10 17:30:10;;;;;;;2.07;1.47;;;21.80;99.90;;;;;;5070881;28;20060;-80
2021/06/10 17:32:43;;;;;;;1.88;1.50;;;21.80;99.90;;;;;;5068156;28;20285;-81
2021/06/10 17:35:11;;;;;;;1.98;1.40;;;21.80;99.90;;;;;;5084678;28;20106;-80
2021/06/10 17:37:39;;;;;;;2.33;1.40;;;22.00;99.90;;;;;;5067006;28;20059;-81
2021/06/10 17:40:09;;;;;;;2.75;1.35;;;22.00;99.90;;;;;;5063492;28;20072;-80
2021/06/10 17:42:40;;;;;;;2.17;1.52;;;22.10;99.90;;;;;;5068418;28;20094;-79
2021/06/10 17:45:09;;;;;;;2.20;1.30;;;22.30;99.90;;;;;;5066129;28;20052;-81
2021/06/10 17:47:36;;;;;;;2.38;1.60;;;22.50;99.90;;;;;;5064185;28;20045;-81
2021/06/10 17:50:05;;;;;;;3.08;1.67;;;22.80;99.90;;;;;;5058308;28;20072;-80
2021/06/10 17:52:35;;;;;;;1.73;1.60;;;22.90;99.90;;;;;;5064351;28;20079;-80
2021/06/10 17:55:04;;;;;;;2.88;1.50;;;23.10;99.90;;;;;;5057320;28;20442;-81
2021/06/10 17:57:30;;;;;;;;;;;23.30;99.90;;;;;;5069791;28;20036;-80
2021/06/10 17:59:57;;;;;;;1.58;1.30;;;23.50;99.90;;;;;;5065537;28;19963;-80
2021/06/10 18:02:24;;;;;;;2.58;1.50;;;23.80;99.90;;;;;;5060676;28;20061;-81
2021/06/10 18:04:52;;;;;;;1.60;1.13;;;24.20;99.90;;;;;;5066505;28;20075;-81
2021/06/10 18:07:19;;;;;;;2.40;1.25;;;24.70;99.90;;;;;;5063561;28;20049;-80
2021/06/10 18:09:45;;;;;;;1.27;1.15;;;25.00;99.90;;;;;;5077078;28;20056;-82
2021/06/10 18:12:12;;;;;;;1.13;1.00;;;25.30;99.90;;;;;;5070101;28;20064;-81
2021/06/10 18:14:39;;;;;;;1.20;1.10;;;25.30;99.90;;;;;;5065481;28;20044;-83
2021/06/10 18:17:06;;;;;;;1.95;1.10;;;25.60;99.90;;;;;;5057983;28;20041;-81
2021/06/10 18:19:35;;;;;;;1.70;1.10;;;25.70;99.90;;;;;;5057165;28;20048;-80
2021/06/10 18:22:03;;;;;;;1.58;0.90;;;25.90;99.90;;;;;;5068323;28;20060;-80
2021/06/10 18:24:30;;;;;;;1.73;1.17;;;25.90;99.90;;;;;;5061972;28;20037;-81
2021/06/10 18:27:00;;;;;;;2.28;1.33;;;26.00;99.90;;;;;;5060755;28;20052;-82
2021/06/10 18:29:27;;;;;;;1.58;1.13;;;26.00;99.90;;;;;;5060077;28;20045;-80
2021/06/10 18:31:54;;;;;;;2.53;1.58;;;25.60;99.90;;;;;;5061093;28;20068;-81
2021/06/10 18:34:21;;;;;;;1.48;1.20;;;25.50;99.90;;;;;;5072478;28;20079;-82
2021/06/10 18:36:49;;;;;;;2.38;1.40;;;25.50;99.90;;;;;;5064787;28;20424;-82
2021/06/10 18:39:16;;;;;;;2.28;1.38;;;25.30;99.90;;;;;;5060975;28;20072;-82
2021/06/10 18:41:42;;;;;;;2.28;1.48;;;25.30;99.90;;;;;;5057274;28;20572;-82
2021/06/10 18:44:09;;;;;;;2.15;1.30;;;25.00;99.90;;;;;;5063553;28;20129;-81
2021/06/10 18:46:36;;;;;;;2.28;1.20;;;24.80;99.90;;;;;;5059838;28;20105;-83
2021/06/10 18:49:05;;;;;;;1.58;1.40;;;24.90;99.90;;;;;;5052041;28;20511;-82
2021/06/10 18:51:32;;;;;;;1.80;1.30;;;24.80;99.90;;;;;;5064377;28;20105;-80
2021/06/10 18:54:03;;;;;;;1.63;1.40;;;24.70;99.90;;;;;;5058847;28;20143;-84
2021/06/10 18:56:30;;;;;;;1.50;1.33;;;25.00;99.90;;;;;;5065979;28;20110;-82
2021/06/10 18:58:59;;;;;;;3.85;1.50;;;24.80;99.90;;;;;;5061158;28;20064;-82
2021/06/10 19:01:26;;;;;;;2.10;1.40;;;24.60;99.90;;;;;;5056215;28;20107;-82
2021/06/10 19:03:53;;;;;;;2.88;1.63;;;24.60;99.90;;;;;;5077529;28;20140;-84
2021/06/10 19:06:20;;;;;;;2.35;1.52;;;24.60;99.90;;;;;;5063088;28;20603;-83
2021/06/10 19:08:47;;;;;;;4.65;1.50;;;24.70;99.90;;;;;;5063884;28;20114;-83
2021/06/10 19:11:13;;;;;;;2.90;1.50;;;24.80;99.90;;;;;;5083741;28;20110;-82
2021/06/10 19:13:42;;;;;;;2.67;1.40;;;24.90;99.90;;;;;;5061827;28;20052;-82
2021/06/10 19:16:10;;;;;;;1.67;1.42;;;25.10;99.90;;;;;;5065120;28;20122;-83
2021/06/10 19:18:37;;;;;;;2.87;1.50;;;25.20;99.90;;;;;;5063274;28;20207;-83
2021/06/10 19:21:06;;;;;;;2.43;1.10;;;25.20;99.90;;;;;;5065725;28;20337;-83
2021/06/10 19:23:33;;;;;;;;;;;24.70;99.90;;;;;;5061524;28;20791;-81
2021/06/10 19:26:01;;;;;;;2.67;1.42;;;23.90;99.90;;;;;;5062876;28;19990;-81
2021/06/10 19:28:28;;;;;;;2.20;1.50;;;23.20;99.90;;;;;;5076297;28;20128;-81
2021/06/10 19:30:54;;;;;;;3.58;1.75;;;22.50;99.90;;;;;;5069887;28;20576;-83
2021/06/10 19:33:23;;;;;;;3.17;1.60;;;21.60;99.90;;;;;;5077208;28;20134;-82
2021/06/10 19:35:55;;;;;;;3.17;1.70;;;21.10;99.90;;;;;;5063016;28;20049;-81
2021/06/10 19:38:24;;;;;;;2.78;1.85;;;20.50;99.90;;;;;;5075891;28;20045;-81
2021/06/10 19:40:56;;;;;;;1.92;1.67;;;20.00;99.90;;;;;;5067769;28;20048;-81
2021/06/10 19:43:26;;;;;;;3.13;1.98;;;19.60;99.90;;;;;;5080127;28;20049;-82
2021/06/10 19:45:57;;;;;;;3.25;2.50;;;19.30;99.90;;;;;;5064266;28;20049;-82
2021/06/10 19:48:28;;;;;;;2.30;2.10;;;19.00;99.90;;;;;;5078311;28;20152;-81
2021/06/10 19:50:56;;;;;;;3.20;2.17;;;18.70;99.90;;;;;;5058031;28;20073;-80
2021/06/10 19:53:22;;;;;;;3.58;2.30;;;18.40;99.90;;;;;;5078295;28;20098;-80
2021/06/10 19:55:49;;;;;;;3.88;2.50;;;18.20;99.90;;;;;;5056609;28;20041;-82
2021/06/10 19:58:19;;;;;;;2.63;2.38;;;18.00;99.90;;;;;;5041630;28;20061;-82
2021/06/10 20:00:50;;;;;;;3.60;2.60;;;17.80;99.90;;;;;;5050065;28;20044;-81
2021/06/10 20:03:21;;;;;;;3.05;2.80;;;17.70;99.90;;;;;;5045399;28;20048;-80
2021/06/10 20:05:48;;;;;;;2.70;2.50;;;17.50;99.90;;;;;;5045704;28;20107;-80
2021/06/10 20:08:16;;;;;;;4.05;2.85;;;17.40;99.90;;;;;;5043578;28;20061;-80
2021/06/10 20:10:43;;;;;;;3.63;3.03;;;17.20;99.90;;;;;;5037875;28;20060;-81
2021/06/10 20:13:10;;;;;;;3.22;2.92;;;17.20;99.90;;;;;;5044873;28;20499;-82
2021/06/10 20:15:37;;;;;;;3.75;3.40;;;17.00;99.90;;;;;;5040602;28;20056;-79
2021/06/10 20:18:04;;;;;;;4.72;3.45;;;17.00;99.90;;;;;;5036096;28;20122;-80
2021/06/10 20:20:31;;;;;;;3.65;3.35;;;16.90;99.90;;;;;;5047338;28;20452;-82
2021/06/10 20:22:58;;;;;;;3.97;3.17;;;16.80;99.90;;;;;;5047192;28;20521;-80
2021/06/10 20:25:26;;;;;;;3.95;3.33;;;16.70;99.90;;;;;;5061387;28;20122;-81
2021/06/10 20:30:39;;;;;;;4.93;3.60;;;16.50;99.90;;;;;;5065033;28;20091;-80
2021/06/10 20:33:09;;;;;;;5.00;3.60;;;16.40;99.90;;;;;;5063195;28;20499;-80
2021/06/10 20:35:37;;;;;;;4.32;3.55;;;16.30;99.90;;;;;;5064742;28;20044;-81
2021/06/10 20:38:06;;;;;;;5.67;4.10;;;16.30;99.90;;;;;;5075017;28;20085;-80
2021/06/10 20:40:35;;;;;;;4.38;3.60;;;16.20;99.90;;;;;;5063213;28;20396;-80
2021/06/10 20:43:06;;;;;;;4.20;3.90;;;16.10;99.90;;;;;;5066838;28;20830;-80
2021/06/10 20:45:37;;;;;;;5.45;3.40;;;16.10;99.90;;;;;;5065466;28;20040;-80
2021/06/10 20:48:08;;;;;;;4.07;3.67;;;16.00;99.90;;;;;;5054409;28;20436;-81
2021/06/10 20:50:35;;;;;;;4.75;4.35;;;15.90;99.90;;;;;;5060151;28;20040;-79
2021/06/10 20:53:02;;;;;;;6.30;4.47;;;15.90;99.90;;;;;;5063925;28;21024;-81
2021/06/10 20:55:29;;;;;;;6.10;4.75;;;15.90;99.90;;;;;;5070101;28;20098;-80
2021/06/10 20:57:56;;;;;;;5.03;4.45;;;15.80;99.90;;;;;;5070492;28;20091;-80